sensor_id;sensor_type;location;lat;lon;timestamp;pressure;altitude;pressure_sealevel;temperature;humidity
80759;BME280;70150;45.582;10.178;2023-09-19T00:00:26;99603.34;;;22.17;75.48
80759;BME280;70150;45.582;10.178;2023-09-19T00:02:54;99608.47;;;22.28;75.40
80759;BME280;70150;45.582;10.178;2023-09-19T00:05:26;99604.41;;;22.20;75.66
80759;BME280;70150;45.582;10.178;2023-09-19T00:07:55;99609.22;;;22.16;75.61
80759;BME280;70150;45.582;10.178;2023-09-19T00:10:27;99617.00;;;22.17;75.29
80759;BME280;70150;45.582;10.178;2023-09-19T00:12:57;99611.06;;;22.06;75.63
80759;BME280;70150;45.582;10.178;2023-09-19T00:15:26;99612.59;;;22.07;75.44
80759;BME280;70150;45.582;10.178;2023-09-19T00:17:55;99606.06;;;22.17;75.56
80759;BME280;70150;45.582;10.178;2023-09-19T00:20:21;99601.00;;;22.28;74.88
80759;BME280;70150;45.582;10.178;2023-09-19T00:22:49;99597.31;;;22.35;74.26
80759;BME280;70150;45.582;10.178;2023-09-19T00:25:18;99596.22;;;22.32;74.28
80759;BME280;70150;45.582;10.178;2023-09-19T00:27:44;99588.22;;;22.25;74.15
80759;BME280;70150;45.582;10.178;2023-09-19T00:30:11;99590.84;;;22.29;74.26
80759;BME280;70150;45.582;10.178;2023-09-19T00:32:40;99589.44;;;22.24;74.69
80759;BME280;70150;45.582;10.178;2023-09-19T00:35:06;99580.81;;;22.01;75.19
80759;BME280;70150;45.582;10.178;2023-09-19T00:37:33;99577.84;;;21.95;75.72
80759;BME280;70150;45.582;10.178;2023-09-19T00:39:59;99579.25;;;22.00;75.50
80759;BME280;70150;45.582;10.178;2023-09-19T00:42:25;99585.50;;;22.00;75.24
80759;BME280;70150;45.582;10.178;2023-09-19T00:44:51;99586.28;;;22.01;75.43
80759;BME280;70150;45.582;10.178;2023-09-19T00:47:18;99576.41;;;21.91;75.67
80759;BME280;70150;45.582;10.178;2023-09-19T00:49:45;99573.22;;;21.92;75.02
80759;BME280;70150;45.582;10.178;2023-09-19T00:52:16;99579.03;;;21.94;74.78
80759;BME280;70150;45.582;10.178;2023-09-19T00:54:47;99584.38;;;21.85;75.29
80759;BME280;70150;45.582;10.178;2023-09-19T00:57:13;99584.38;;;21.85;75.07
80759;BME280;70150;45.582;10.178;2023-09-19T00:59:41;99580.88;;;21.85;74.98
80759;BME280;70150;45.582;10.178;2023-09-19T01:02:07;99583.81;;;21.90;75.05
80759;BME280;70150;45.582;10.178;2023-09-19T01:04:33;99591.50;;;21.95;75.14
80759;BME280;70150;45.582;10.178;2023-09-19T01:06:59;99578.06;;;21.88;75.15
80759;BME280;70150;45.582;10.178;2023-09-19T01:09:25;99582.19;;;21.80;75.28
80759;BME280;70150;45.582;10.178;2023-09-19T01:11:58;99583.97;;;21.71;75.36
80759;BME280;70150;45.582;10.178;2023-09-19T01:17:03;99584.28;;;21.60;76.13
80759;BME280;70150;45.582;10.178;2023-09-19T01:19:45;99590.91;;;21.75;76.21
80759;BME280;70150;45.582;10.178;2023-09-19T01:22:26;99585.91;;;21.86;77.09
80759;BME280;70150;45.582;10.178;2023-09-19T01:30:08;99601.88;;;21.59;80.47
80759;BME280;70150;45.582;10.178;2023-09-19T01:32:34;99606.09;;;21.76;79.73
80759;BME280;70150;45.582;10.178;2023-09-19T01:35:00;99605.09;;;21.70;80.27
80759;BME280;70150;45.582;10.178;2023-09-19T01:37:29;99606.63;;;21.42;81.01
80759;BME280;70150;45.582;10.178;2023-09-19T01:40:01;99604.38;;;21.54;80.75
80759;BME280;70150;45.582;10.178;2023-09-19T01:42:39;99610.88;;;21.43;80.94
80759;BME280;70150;45.582;10.178;2023-09-19T01:45:13;99613.03;;;21.36;81.08
80759;BME280;70150;45.582;10.178;2023-09-19T01:47:46;99609.72;;;21.57;80.55
80759;BME280;70150;45.582;10.178;2023-09-19T01:50:21;99606.78;;;21.52;80.89
80759;BME280;70150;45.582;10.178;2023-09-19T01:52:54;99611.72;;;21.28;82.03
80759;BME280;70150;45.582;10.178;2023-09-19T01:55:22;99613.91;;;21.33;81.51
80759;BME280;70150;45.582;10.178;2023-09-19T01:58:06;99617.56;;;21.42;81.34
80759;BME280;70150;45.582;10.178;2023-09-19T02:00:34;99614.31;;;21.31;81.59
80759;BME280;70150;45.582;10.178;2023-09-19T02:03:03;99617.97;;;21.41;80.96
80759;BME280;70150;45.582;10.178;2023-09-19T02:05:29;99626.63;;;21.23;81.06
80759;BME280;70150;45.582;10.178;2023-09-19T02:07:55;99619.84;;;21.15;81.85
80759;BME280;70150;45.582;10.178;2023-09-19T02:10:22;99619.91;;;21.12;81.97
80759;BME280;70150;45.582;10.178;2023-09-19T02:12:48;99618.97;;;21.18;81.67
80759;BME280;70150;45.582;10.178;2023-09-19T02:15:14;99617.00;;;21.19;81.65
80759;BME280;70150;45.582;10.178;2023-09-19T02:17:41;99611.22;;;21.17;81.72
80759;BME280;70150;45.582;10.178;2023-09-19T02:20:08;99609.88;;;21.09;82.19
80759;BME280;70150;45.582;10.178;2023-09-19T02:22:35;99611.28;;;21.29;81.34
80759;BME280;70150;45.582;10.178;2023-09-19T02:25:01;99605.00;;;21.16;82.12
80759;BME280;70150;45.582;10.178;2023-09-19T02:27:27;99614.53;;;21.08;82.09
80759;BME280;70150;45.582;10.178;2023-09-19T02:29:52;99613.63;;;20.99;82.17
80759;BME280;70150;45.582;10.178;2023-09-19T02:32:19;99612.00;;;20.85;82.84
80759;BME280;70150;45.582;10.178;2023-09-19T02:34:44;99614.97;;;21.07;82.13
80759;BME280;70150;45.582;10.178;2023-09-19T02:37:10;99608.19;;;20.99;82.17
80759;BME280;70150;45.582;10.178;2023-09-19T02:39:36;99618.38;;;21.11;81.55
80759;BME280;70150;45.582;10.178;2023-09-19T02:42:02;99617.69;;;20.91;81.97
80759;BME280;70150;45.582;10.178;2023-09-19T02:44:29;99621.63;;;20.74;83.24
80759;BME280;70150;45.582;10.178;2023-09-19T02:46:55;99619.31;;;20.72;82.87
80759;BME280;70150;45.582;10.178;2023-09-19T02:49:25;99617.88;;;20.84;82.18
80759;BME280;70150;45.582;10.178;2023-09-19T02:51:50;99616.34;;;20.83;81.86
80759;BME280;70150;45.582;10.178;2023-09-19T02:54:17;99626.91;;;20.81;82.40
80759;BME280;70150;45.582;10.178;2023-09-19T02:56:43;99622.31;;;20.78;83.00
80759;BME280;70150;45.582;10.178;2023-09-19T02:59:09;99625.53;;;20.73;83.05
80759;BME280;70150;45.582;10.178;2023-09-19T03:01:36;99628.59;;;20.59;83.68
80759;BME280;70150;45.582;10.178;2023-09-19T03:04:03;99629.72;;;20.77;82.90
80759;BME280;70150;45.582;10.178;2023-09-19T03:06:28;99634.81;;;20.75;83.06
80759;BME280;70150;45.582;10.178;2023-09-19T03:08:56;99623.06;;;20.78;83.27
80759;BME280;70150;45.582;10.178;2023-09-19T03:11:22;99621.72;;;20.70;83.10
80759;BME280;70150;45.582;10.178;2023-09-19T03:13:52;99619.84;;;20.67;83.09
80759;BME280;70150;45.582;10.178;2023-09-19T03:16:17;99622.56;;;20.83;82.34
80759;BME280;70150;45.582;10.178;2023-09-19T03:18:44;99615.41;;;20.73;82.82
80759;BME280;70150;45.582;10.178;2023-09-19T03:21:10;99606.03;;;20.74;82.66
80759;BME280;70150;45.582;10.178;2023-09-19T03:23:36;99609.34;;;20.82;82.21
80759;BME280;70150;45.582;10.178;2023-09-19T03:26:01;99610.03;;;20.70;82.90
80759;BME280;70150;45.582;10.178;2023-09-19T03:28:27;99602.22;;;20.72;83.06
80759;BME280;70150;45.582;10.178;2023-09-19T03:33:25;99607.31;;;20.70;82.92
80759;BME280;70150;45.582;10.178;2023-09-19T03:35:53;99604.41;;;20.77;82.36
80759;BME280;70150;45.582;10.178;2023-09-19T03:38:20;99603.91;;;20.66;82.49
80759;BME280;70150;45.582;10.178;2023-09-19T03:40:47;99603.50;;;20.67;82.50
80759;BME280;70150;45.582;10.178;2023-09-19T03:43:13;99599.63;;;20.65;82.35
80759;BME280;70150;45.582;10.178;2023-09-19T03:45:38;99594.78;;;20.72;82.27
80759;BME280;70150;45.582;10.178;2023-09-19T03:50:36;99600.00;;;20.67;82.08
80759;BME280;70150;45.582;10.178;2023-09-19T03:53:02;99597.09;;;20.58;82.35
80759;BME280;70150;45.582;10.178;2023-09-19T03:55:28;99593.84;;;20.47;82.67
80759;BME280;70150;45.582;10.178;2023-09-19T03:57:55;99590.69;;;20.32;82.98
80759;BME280;70150;45.582;10.178;2023-09-19T04:00:21;99587.03;;;20.55;82.13
80759;BME280;70150;45.582;10.178;2023-09-19T04:02:49;99592.91;;;20.53;81.99
80759;BME280;70150;45.582;10.178;2023-09-19T04:05:14;99588.56;;;20.56;80.24
80759;BME280;70150;45.582;10.178;2023-09-19T04:07:40;99591.91;;;20.47;81.64
80759;BME280;70150;45.582;10.178;2023-09-19T04:10:06;99596.88;;;20.33;83.09
80759;BME280;70150;45.582;10.178;2023-09-19T04:12:34;99598.75;;;20.20;84.25
80759;BME280;70150;45.582;10.178;2023-09-19T04:14:59;99595.38;;;20.32;83.90
80759;BME280;70150;45.582;10.178;2023-09-19T04:17:25;99593.00;;;20.34;83.42
80759;BME280;70150;45.582;10.178;2023-09-19T04:19:51;99590.78;;;20.45;82.90
80759;BME280;70150;45.582;10.178;2023-09-19T04:22:16;99579.09;;;20.28;83.75
80759;BME280;70150;45.582;10.178;2023-09-19T04:24:42;99591.13;;;20.31;83.42
80759;BME280;70150;45.582;10.178;2023-09-19T04:27:08;99590.09;;;20.25;83.86
80759;BME280;70150;45.582;10.178;2023-09-19T04:29:35;99592.47;;;20.23;83.87
80759;BME280;70150;45.582;10.178;2023-09-19T04:32:00;99590.66;;;20.16;84.30
80759;BME280;70150;45.582;10.178;2023-09-19T04:34:26;99590.22;;;20.18;82.54
80759;BME280;70150;45.582;10.178;2023-09-19T04:36:52;99587.00;;;20.23;81.91
80759;BME280;70150;45.582;10.178;2023-09-19T04:39:18;99591.56;;;20.10;81.70
80759;BME280;70150;45.582;10.178;2023-09-19T04:41:43;99596.41;;;20.02;80.39
80759;BME280;70150;45.582;10.178;2023-09-19T04:44:11;99603.53;;;20.16;79.46
80759;BME280;70150;45.582;10.178;2023-09-19T04:46:37;99606.09;;;20.23;79.35
80759;BME280;70150;45.582;10.178;2023-09-19T04:49:03;99611.88;;;20.25;79.30
80759;BME280;70150;45.582;10.178;2023-09-19T04:51:31;99618.09;;;20.25;79.25
80759;BME280;70150;45.582;10.178;2023-09-19T04:54:00;99616.78;;;20.14;80.08
80759;BME280;70150;45.582;10.178;2023-09-19T04:56:25;99624.91;;;20.17;78.95
80759;BME280;70150;45.582;10.178;2023-09-19T04:58:51;99630.66;;;20.19;78.88
80759;BME280;70150;45.582;10.178;2023-09-19T05:01:16;99639.63;;;20.20;78.62
80759;BME280;70150;45.582;10.178;2023-09-19T05:03:42;99643.13;;;20.20;79.04
80759;BME280;70150;45.582;10.178;2023-09-19T05:06:10;99651.56;;;20.26;78.66
80759;BME280;70150;45.582;10.178;2023-09-19T05:08:35;99645.19;;;20.32;78.50
80759;BME280;70150;45.582;10.178;2023-09-19T05:11:02;99653.44;;;20.29;78.57
80759;BME280;70150;45.582;10.178;2023-09-19T05:13:27;99656.53;;;20.47;78.18
80759;BME280;70150;45.582;10.178;2023-09-19T05:15:53;99650.78;;;20.25;79.66
80759;BME280;70150;45.582;10.178;2023-09-19T05:18:18;99655.66;;;20.34;78.71
80759;BME280;70150;45.582;10.178;2023-09-19T05:20:44;99653.69;;;20.34;78.84
80759;BME280;70150;45.582;10.178;2023-09-19T05:23:10;99658.94;;;20.25;78.36
80759;BME280;70150;45.582;10.178;2023-09-19T05:25:39;99662.72;;;20.31;78.01
80759;BME280;70150;45.582;10.178;2023-09-19T05:28:06;99661.19;;;20.30;77.93
80759;BME280;70150;45.582;10.178;2023-09-19T05:30:32;99661.03;;;20.37;77.62
80759;BME280;70150;45.582;10.178;2023-09-19T05:32:59;99666.06;;;20.39;77.67
80759;BME280;70150;45.582;10.178;2023-09-19T05:35:25;99663.31;;;20.39;77.68
80759;BME280;70150;45.582;10.178;2023-09-19T05:37:51;99664.03;;;20.43;77.46
80759;BME280;70150;45.582;10.178;2023-09-19T05:40:18;99665.66;;;20.56;77.09
80759;BME280;70150;45.582;10.178;2023-09-19T05:42:44;99669.16;;;20.57;76.59
80759;BME280;70150;45.582;10.178;2023-09-19T05:45:11;99681.19;;;20.75;76.33
80759;BME280;70150;45.582;10.178;2023-09-19T05:47:39;99678.38;;;20.79;76.28
80759;BME280;70150;45.582;10.178;2023-09-19T05:50:06;99685.97;;;20.87;76.37
80759;BME280;70150;45.582;10.178;2023-09-19T05:52:33;99691.19;;;20.98;75.69
80759;BME280;70150;45.582;10.178;2023-09-19T05:54:59;99694.41;;;20.93;75.61
80759;BME280;70150;45.582;10.178;2023-09-19T05:57:25;99696.38;;;20.92;75.60
80759;BME280;70150;45.582;10.178;2023-09-19T05:59:50;99694.34;;;20.96;75.14
80759;BME280;70150;45.582;10.178;2023-09-19T06:02:16;99690.22;;;20.72;75.74
80759;BME280;70150;45.582;10.178;2023-09-19T06:04:41;99695.34;;;20.86;75.67
80759;BME280;70150;45.582;10.178;2023-09-19T06:07:07;99694.66;;;20.82;75.57
80759;BME280;70150;45.582;10.178;2023-09-19T06:09:32;99688.47;;;20.98;75.67
80759;BME280;70150;45.582;10.178;2023-09-19T06:11:59;99696.56;;;21.17;74.64
80759;BME280;70150;45.582;10.178;2023-09-19T06:14:28;99694.41;;;21.25;73.77
80759;BME280;70150;45.582;10.178;2023-09-19T06:16:54;99702.03;;;21.62;72.45
80759;BME280;70150;45.582;10.178;2023-09-19T06:19:20;99692.50;;;21.54;72.09
80759;BME280;70150;45.582;10.178;2023-09-19T06:21:48;99693.03;;;21.49;72.90
80759;BME280;70150;45.582;10.178;2023-09-19T06:24:14;99697.56;;;21.39;73.13
80759;BME280;70150;45.582;10.178;2023-09-19T06:26:40;99693.50;;;21.60;72.74
80759;BME280;70150;45.582;10.178;2023-09-19T06:29:05;99690.34;;;23.32;66.73
80759;BME280;70150;45.582;10.178;2023-09-19T06:31:33;99690.56;;;25.87;58.07
80759;BME280;70150;45.582;10.178;2023-09-19T06:33:59;99693.38;;;28.27;50.96
80759;BME280;70150;45.582;10.178;2023-09-19T06:36:24;99694.97;;;29.11;48.15
80759;BME280;70150;45.582;10.178;2023-09-19T06:38:50;99685.63;;;30.46;44.80
80759;BME280;70150;45.582;10.178;2023-09-19T06:41:17;99700.50;;;31.27;42.47
80759;BME280;70150;45.582;10.178;2023-09-19T06:43:43;99693.72;;;32.58;40.49
80759;BME280;70150;45.582;10.178;2023-09-19T06:46:09;99695.00;;;33.59;37.96
80759;BME280;70150;45.582;10.178;2023-09-19T06:48:36;99692.13;;;34.16;36.49
80759;BME280;70150;45.582;10.178;2023-09-19T06:51:01;99691.03;;;34.84;35.36
80759;BME280;70150;45.582;10.178;2023-09-19T06:53:32;99688.59;;;36.15;33.17
80759;BME280;70150;45.582;10.178;2023-09-19T06:55:58;99691.28;;;36.40;32.76
80759;BME280;70150;45.582;10.178;2023-09-19T06:58:23;99688.41;;;35.95;33.39
80759;BME280;70150;45.582;10.178;2023-09-19T07:00:49;99687.38;;;35.61;34.31
80759;BME280;70150;45.582;10.178;2023-09-19T07:03:15;99687.69;;;37.36;31.71
80759;BME280;70150;45.582;10.178;2023-09-19T07:05:44;99692.13;;;37.05;31.88
80759;BME280;70150;45.582;10.178;2023-09-19T07:08:10;99698.00;;;32.21;40.91
80759;BME280;70150;45.582;10.178;2023-09-19T07:10:38;99701.25;;;34.46;36.10
80759;BME280;70150;45.582;10.178;2023-09-19T07:13:07;99696.78;;;36.58;32.64
80759;BME280;70150;45.582;10.178;2023-09-19T07:15:38;99708.81;;;37.24;31.28
80759;BME280;70150;45.582;10.178;2023-09-19T07:18:13;99705.81;;;37.81;30.78
80759;BME280;70150;45.582;10.178;2023-09-19T07:20:40;99704.34;;;37.67;30.72
80759;BME280;70150;45.582;10.178;2023-09-19T07:23:11;99698.50;;;37.78;30.42
80759;BME280;70150;45.582;10.178;2023-09-19T07:25:39;99700.53;;;39.73;27.63
80759;BME280;70150;45.582;10.178;2023-09-19T07:28:05;99705.34;;;40.83;26.21
80759;BME280;70150;45.582;10.178;2023-09-19T07:30:35;99707.78;;;41.64;25.37
80759;BME280;70150;45.582;10.178;2023-09-19T07:33:02;99702.41;;;41.36;25.18
80759;BME280;70150;45.582;10.178;2023-09-19T07:35:30;99699.53;;;40.73;26.03
80759;BME280;70150;45.582;10.178;2023-09-19T07:37:56;99698.38;;;39.50;27.45
80759;BME280;70150;45.582;10.178;2023-09-19T07:40:27;99701.09;;;39.35;27.56
80759;BME280;70150;45.582;10.178;2023-09-19T07:42:55;99701.59;;;41.58;25.18
80759;BME280;70150;45.582;10.178;2023-09-19T07:45:21;99705.50;;;41.07;25.32
80759;BME280;70150;45.582;10.178;2023-09-19T07:47:47;99709.56;;;41.37;25.46
80759;BME280;70150;45.582;10.178;2023-09-19T07:50:14;99715.25;;;40.99;25.45
80759;BME280;70150;45.582;10.178;2023-09-19T07:52:41;99719.16;;;36.26;32.66
80759;BME280;70150;45.582;10.178;2023-09-19T07:55:08;99717.66;;;33.17;37.78
80759;BME280;70150;45.582;10.178;2023-09-19T07:57:36;99717.06;;;31.64;41.17
80759;BME280;70150;45.582;10.178;2023-09-19T08:00:03;99719.53;;;31.03;43.58
80759;BME280;70150;45.582;10.178;2023-09-19T08:02:34;99730.81;;;30.63;44.84
80759;BME280;70150;45.582;10.178;2023-09-19T08:05:00;99726.63;;;30.42;45.32
80759;BME280;70150;45.582;10.178;2023-09-19T08:07:26;99728.22;;;30.23;46.17
80759;BME280;70150;45.582;10.178;2023-09-19T08:09:51;99732.56;;;29.84;46.84
80759;BME280;70150;45.582;10.178;2023-09-19T08:12:17;99738.19;;;29.69;47.69
80759;BME280;70150;45.582;10.178;2023-09-19T08:14:43;99736.59;;;29.42;48.74
80759;BME280;70150;45.582;10.178;2023-09-19T08:17:08;99746.03;;;29.01;49.06
80759;BME280;70150;45.582;10.178;2023-09-19T08:19:34;99743.56;;;29.03;50.31
80759;BME280;70150;45.582;10.178;2023-09-19T08:22:00;99741.22;;;28.82;51.78
80759;BME280;70150;45.582;10.178;2023-09-19T08:24:27;99738.59;;;28.73;52.26
80759;BME280;70150;45.582;10.178;2023-09-19T08:26:54;99747.34;;;28.57;52.32
80759;BME280;70150;45.582;10.178;2023-09-19T08:29:20;99749.91;;;28.31;53.17
80759;BME280;70150;45.582;10.178;2023-09-19T08:31:45;99744.88;;;28.44;52.53
80759;BME280;70150;45.582;10.178;2023-09-19T08:34:15;99752.28;;;28.24;51.95
80759;BME280;70150;45.582;10.178;2023-09-19T08:36:41;99743.78;;;27.98;53.34
80759;BME280;70150;45.582;10.178;2023-09-19T08:39:08;99744.94;;;28.06;53.62
80759;BME280;70150;45.582;10.178;2023-09-19T08:41:37;99745.63;;;28.16;54.29
80759;BME280;70150;45.582;10.178;2023-09-19T08:44:02;99748.09;;;28.13;54.50
80759;BME280;70150;45.582;10.178;2023-09-19T08:46:30;99742.28;;;27.73;54.37
80759;BME280;70150;45.582;10.178;2023-09-19T08:49:04;99743.69;;;28.07;55.43
80759;BME280;70150;45.582;10.178;2023-09-19T08:51:39;99744.00;;;28.24;54.47
80759;BME280;70150;45.582;10.178;2023-09-19T08:54:07;99745.56;;;27.86;53.92
80759;BME280;70150;45.582;10.178;2023-09-19T08:56:33;99751.78;;;27.72;53.83
80759;BME280;70150;45.582;10.178;2023-09-19T08:59:03;99752.81;;;27.37;55.53
80759;BME280;70150;45.582;10.178;2023-09-19T09:01:31;99745.56;;;27.86;54.38
80759;BME280;70150;45.582;10.178;2023-09-19T09:03:58;99751.09;;;28.01;54.01
80759;BME280;70150;45.582;10.178;2023-09-19T09:06:24;99751.50;;;28.08;54.89
80759;BME280;70150;45.582;10.178;2023-09-19T09:08:51;99749.50;;;28.09;54.42
80759;BME280;70150;45.582;10.178;2023-09-19T09:11:17;99749.91;;;28.31;54.18
80759;BME280;70150;45.582;10.178;2023-09-19T09:13:44;99749.69;;;27.44;54.64
80759;BME280;70150;45.582;10.178;2023-09-19T09:16:13;99750.59;;;27.26;56.43
80759;BME280;70150;45.582;10.178;2023-09-19T09:18:39;99746.63;;;27.89;54.83
80759;BME280;70150;45.582;10.178;2023-09-19T09:21:05;99752.44;;;27.44;55.46
80759;BME280;70150;45.582;10.178;2023-09-19T09:23:33;99754.16;;;27.41;55.76
80759;BME280;70150;45.582;10.178;2023-09-19T09:25:59;99749.38;;;27.89;55.79
80759;BME280;70150;45.582;10.178;2023-09-19T09:28:30;99754.25;;;28.08;54.96
80759;BME280;70150;45.582;10.178;2023-09-19T09:30:57;99756.09;;;28.26;54.10
80759;BME280;70150;45.582;10.178;2023-09-19T09:33:23;99753.25;;;28.35;53.60
80759;BME280;70150;45.582;10.178;2023-09-19T09:35:53;99753.16;;;28.44;53.52
80759;BME280;70150;45.582;10.178;2023-09-19T09:38:23;99750.03;;;28.51;53.02
80759;BME280;70150;45.582;10.178;2023-09-19T09:40:54;99750.50;;;28.64;52.48
80759;BME280;70150;45.582;10.178;2023-09-19T09:48:34;99741.16;;;28.62;54.09
80759;BME280;70150;45.582;10.178;2023-09-19T09:51:04;99744.00;;;28.09;55.13
80759;BME280;70150;45.582;10.178;2023-09-19T09:53:33;99742.19;;;28.06;55.63
80759;BME280;70150;45.582;10.178;2023-09-19T10:00:59;99742.66;;;28.77;52.83
80759;BME280;70150;45.582;10.178;2023-09-19T10:03:32;99742.41;;;28.61;52.50
80759;BME280;70150;45.582;10.178;2023-09-19T10:06:02;99741.47;;;28.98;52.89
80759;BME280;70150;45.582;10.178;2023-09-19T10:11:19;99739.16;;;29.11;51.80
80759;BME280;70150;45.582;10.178;2023-09-19T10:13:49;99733.97;;;29.33;50.92
80759;BME280;70150;45.582;10.178;2023-09-19T10:16:16;99736.38;;;29.46;51.36
80759;BME280;70150;45.582;10.178;2023-09-19T10:18:44;99740.09;;;29.23;51.85
80759;BME280;70150;45.582;10.178;2023-09-19T10:21:12;99744.94;;;29.48;52.16
80759;BME280;70150;45.582;10.178;2023-09-19T10:23:38;99730.84;;;29.66;50.80
80759;BME280;70150;45.582;10.178;2023-09-19T10:26:08;99739.41;;;29.48;49.80
80759;BME280;70150;45.582;10.178;2023-09-19T10:28:35;99732.91;;;29.11;51.21
80759;BME280;70150;45.582;10.178;2023-09-19T10:31:01;99740.44;;;29.30;51.28
80759;BME280;70150;45.582;10.178;2023-09-19T10:33:35;99733.66;;;29.31;52.03
80759;BME280;70150;45.582;10.178;2023-09-19T10:36:01;99740.19;;;29.48;51.95
80759;BME280;70150;45.582;10.178;2023-09-19T10:38:31;99736.09;;;29.24;52.40
80759;BME280;70150;45.582;10.178;2023-09-19T10:40:59;99733.31;;;29.24;52.27
80759;BME280;70150;45.582;10.178;2023-09-19T10:43:29;99731.88;;;29.48;51.21
80759;BME280;70150;45.582;10.178;2023-09-19T10:48:31;99729.16;;;29.68;51.33
80759;BME280;70150;45.582;10.178;2023-09-19T10:53:26;99731.53;;;29.61;52.57
80759;BME280;70150;45.582;10.178;2023-09-19T10:55:56;99726.00;;;30.07;50.47
80759;BME280;70150;45.582;10.178;2023-09-19T10:58:26;99719.13;;;29.97;50.05
80759;BME280;70150;45.582;10.178;2023-09-19T11:00:56;99720.00;;;30.08;49.39
80759;BME280;70150;45.582;10.178;2023-09-19T11:03:23;99713.22;;;29.84;51.13
80759;BME280;70150;45.582;10.178;2023-09-19T11:10:59;99711.31;;;30.21;50.33
80759;BME280;70150;45.582;10.178;2023-09-19T11:23:32;99697.69;;;29.92;50.37
80759;BME280;70150;45.582;10.178;2023-09-19T11:26:02;99692.72;;;29.96;49.10
80759;BME280;70150;45.582;10.178;2023-09-19T11:28:30;99697.31;;;29.58;49.20
80759;BME280;70150;45.582;10.178;2023-09-19T11:30:56;99698.38;;;29.41;51.00
80759;BME280;70150;45.582;10.178;2023-09-19T11:43:48;99695.13;;;29.62;50.61
80759;BME280;70150;45.582;10.178;2023-09-19T11:46:16;99685.22;;;29.76;50.38
80759;BME280;70150;45.582;10.178;2023-09-19T11:48:47;99692.09;;;29.86;50.48
80759;BME280;70150;45.582;10.178;2023-09-19T11:51:19;99692.75;;;30.01;51.22
80759;BME280;70150;45.582;10.178;2023-09-19T11:53:48;99687.44;;;29.98;49.40
80759;BME280;70150;45.582;10.178;2023-09-19T11:56:16;99684.72;;;29.77;49.30
80759;BME280;70150;45.582;10.178;2023-09-19T11:58:43;99682.38;;;29.70;49.48
80759;BME280;70150;45.582;10.178;2023-09-19T12:01:13;99680.25;;;29.86;49.10
80759;BME280;70150;45.582;10.178;2023-09-19T12:03:42;99686.19;;;29.73;49.72
80759;BME280;70150;45.582;10.178;2023-09-19T12:06:14;99681.03;;;29.86;49.26
80759;BME280;70150;45.582;10.178;2023-09-19T12:08:42;99680.03;;;30.15;48.27
80759;BME280;70150;45.582;10.178;2023-09-19T12:11:12;99678.16;;;30.01;48.65
80759;BME280;70150;45.582;10.178;2023-09-19T12:13:43;99675.28;;;29.90;49.41
80759;BME280;70150;45.582;10.178;2023-09-19T12:18:44;99671.50;;;30.13;47.92
80759;BME280;70150;45.582;10.178;2023-09-19T12:23:42;99662.59;;;30.29;47.79
80759;BME280;70150;45.582;10.178;2023-09-19T12:26:09;99662.91;;;30.36;47.04
80759;BME280;70150;45.582;10.178;2023-09-19T12:28:41;99663.28;;;30.24;47.53
80759;BME280;70150;45.582;10.178;2023-09-19T12:31:07;99657.56;;;30.33;47.26
80759;BME280;70150;45.582;10.178;2023-09-19T12:33:33;99654.66;;;29.91;47.38
80759;BME280;70150;45.582;10.178;2023-09-19T12:36:00;99662.47;;;29.92;47.66
80759;BME280;70150;45.582;10.178;2023-09-19T12:38:29;99651.28;;;30.07;47.54
80759;BME280;70150;45.582;10.178;2023-09-19T12:40:56;99653.91;;;30.16;47.73
80759;BME280;70150;45.582;10.178;2023-09-19T12:43:26;99652.59;;;30.37;47.34
80759;BME280;70150;45.582;10.178;2023-09-19T12:45:52;99643.91;;;30.24;47.08
80759;BME280;70150;45.582;10.178;2023-09-19T12:55:58;99646.28;;;29.59;48.87
80759;BME280;70150;45.582;10.178;2023-09-19T12:58:24;99643.94;;;29.72;49.03
80759;BME280;70150;45.582;10.178;2023-09-19T13:00:50;99643.06;;;29.87;47.67
80759;BME280;70150;45.582;10.178;2023-09-19T13:03:25;99646.31;;;30.11;47.79
80759;BME280;70150;45.582;10.178;2023-09-19T13:05:53;99646.31;;;30.11;48.42
80759;BME280;70150;45.582;10.178;2023-09-19T13:08:24;99630.63;;;30.28;46.80
80759;BME280;70150;45.582;10.178;2023-09-19T13:13:24;99638.25;;;29.61;47.31
80759;BME280;70150;45.582;10.178;2023-09-19T13:15:53;99628.78;;;29.94;46.95
80759;BME280;70150;45.582;10.178;2023-09-19T13:18:19;99636.25;;;29.82;47.62
80759;BME280;70150;45.582;10.178;2023-09-19T13:21:06;99632.41;;;30.05;46.26
80759;BME280;70150;45.582;10.178;2023-09-19T13:23:35;99628.97;;;29.85;46.36
80759;BME280;70150;45.582;10.178;2023-09-19T13:26:02;99633.63;;;29.99;47.54
80759;BME280;70150;45.582;10.178;2023-09-19T13:28:29;99637.63;;;29.98;47.37
80759;BME280;70150;45.582;10.178;2023-09-19T13:30:55;99626.44;;;29.35;48.80
80759;BME280;70150;45.582;10.178;2023-09-19T13:33:22;99626.72;;;29.63;47.12
80759;BME280;70150;45.582;10.178;2023-09-19T13:35:47;99624.69;;;29.84;47.21
80759;BME280;70150;45.582;10.178;2023-09-19T13:38:14;99628.97;;;29.85;46.96
80759;BME280;70150;45.582;10.178;2023-09-19T13:40:40;99631.09;;;30.01;47.12
80759;BME280;70150;45.582;10.178;2023-09-19T13:43:07;99629.47;;;30.14;46.64
80759;BME280;70150;45.582;10.178;2023-09-19T13:45:33;99623.66;;;30.12;46.55
80759;BME280;70150;45.582;10.178;2023-09-19T13:47:59;99627.53;;;30.20;46.61
80759;BME280;70150;45.582;10.178;2023-09-19T13:50:25;99616.50;;;30.26;46.88
80759;BME280;70150;45.582;10.178;2023-09-19T13:52:54;99616.47;;;29.95;46.97
80759;BME280;70150;45.582;10.178;2023-09-19T13:55:20;99624.09;;;30.05;47.51
80759;BME280;70150;45.582;10.178;2023-09-19T13:57:48;99615.41;;;30.18;47.68
80759;BME280;70150;45.582;10.178;2023-09-19T14:00:16;99625.50;;;30.21;47.02
80759;BME280;70150;45.582;10.178;2023-09-19T14:02:43;99623.31;;;29.73;46.55